AAL223 KDFW-KXNA
Flight info
| Callsign | AAL223 |
|---|---|
| Flight time | 0h 47m |
| Altitude | 32000 |
| Route | AKUNA9 MLC RZC |
| Aircraft | A319/M-SDE3FGHIRWY/LB1 |
Departure
| Time | 2026-05-06 16:20 |
|---|---|
| Airport | Dallas Fort Worth International Airport (KDFW) |
Arrival
| Time | 2026-05-06 17:07 |
|---|---|
| Airport | Northwest Arkansas National Airport (KXNA) |
| Time | Latitude | Longitude | Altitude | Speed | Heading |
|---|---|---|---|---|---|
| 2026-05-06 15:58 | 32.89477 | -97.03700 | 690 ft | 0 kts | 352° |
| 2026-05-06 16:05 | 32.89463 | -97.03698 | 579 ft | 2 kts | 349° |
| 2026-05-06 16:06 | 32.89452 | -97.03690 | 574 ft | 0 kts | 281° |
| 2026-05-06 16:10 | 32.89452 | -97.03692 | 598 ft | 3 kts | 275° |
| 2026-05-06 16:10 | 32.89451 | -97.03695 | 598 ft | 0 kts | 254° |
| 2026-05-06 16:11 | 32.89441 | -97.03709 | 598 ft | 1 kts | 198° |
| 2026-05-06 16:12 | 32.89416 | -97.03667 | 598 ft | 7 kts | 93° |
| 2026-05-06 16:12 | 32.89416 | -97.03659 | 598 ft | 0 kts | 88° |
| 2026-05-06 16:12 | 32.89416 | -97.03649 | 598 ft | 6 kts | 94° |
| 2026-05-06 16:12 | 32.89402 | -97.03597 | 598 ft | 4 kts | 109° |
| 2026-05-06 16:13 | 32.89398 | -97.03555 | 598 ft | 7 kts | 91° |
| 2026-05-06 16:13 | 32.89397 | -97.03515 | 598 ft | 2 kts | 91° |
| 2026-05-06 16:13 | 32.89398 | -97.03498 | 598 ft | 10 kts | 91° |
| 2026-05-06 16:13 | 32.89384 | -97.03350 | 598 ft | 16 kts | 133° |
| 2026-05-06 16:14 | 32.89297 | -97.03322 | 598 ft | 11 kts | 176° |
| 2026-05-06 16:14 | 32.89240 | -97.03320 | 598 ft | 6 kts | 180° |
| 2026-05-06 16:14 | 32.89135 | -97.03319 | 598 ft | 18 kts | 178° |
| 2026-05-06 16:14 | 32.89014 | -97.03320 | 598 ft | 23 kts | 181° |
| 2026-05-06 16:15 | 32.88868 | -97.03323 | 598 ft | 19 kts | 180° |
| 2026-05-06 16:15 | 32.88754 | -97.03323 | 598 ft | 14 kts | 180° |
| 2026-05-06 16:15 | 32.88675 | -97.03321 | 598 ft | 9 kts | 179° |
| 2026-05-06 16:15 | 32.88602 | -97.03360 | 598 ft | 19 kts | 244° |
| 2026-05-06 16:16 | 32.88598 | -97.03453 | 598 ft | 9 kts | 274° |
| 2026-05-06 16:16 | 32.88603 | -97.03616 | 598 ft | 20 kts | 268° |
| 2026-05-06 16:16 | 32.88603 | -97.03758 | 598 ft | 15 kts | 271° |
| 2026-05-06 16:16 | 32.88605 | -97.03859 | 598 ft | 12 kts | 270° |
| 2026-05-06 16:17 | 32.88607 | -97.04055 | 598 ft | 23 kts | 272° |
| 2026-05-06 16:17 | 32.88611 | -97.04224 | 598 ft | 18 kts | 272° |
| 2026-05-06 16:17 | 32.88610 | -97.04424 | 598 ft | 33 kts | 272° |
| 2026-05-06 16:17 | 32.88612 | -97.04669 | 598 ft | 27 kts | 269° |
| 2026-05-06 16:18 | 32.88600 | -97.04849 | 598 ft | 16 kts | 231° |
| 2026-05-06 16:18 | 32.88500 | -97.04892 | 598 ft | 30 kts | 179° |
| 2026-05-06 16:18 | 32.88304 | -97.04897 | 598 ft | 25 kts | 179° |
| 2026-05-06 16:18 | 32.88146 | -97.04897 | 598 ft | 20 kts | 180° |
| 2026-05-06 16:19 | 32.88064 | -97.04962 | 598 ft | 12 kts | 259° |
| 2026-05-06 16:19 | 32.88070 | -97.05058 | 598 ft | 15 kts | 303° |
| 2026-05-06 16:19 | 32.88142 | -97.05093 | 598 ft | 9 kts | 359° |
| 2026-05-06 16:19 | 32.88434 | -97.05089 | 598 ft | 80 kts | 1° |
| 2026-05-06 16:20 | 32.89233 | -97.05082 | 628 ft | 147 kts | 2° |
| 2026-05-06 16:20 | 32.90379 | -97.04974 | 898 ft | 191 kts | 17° |
| 2026-05-06 16:20 | 32.91598 | -97.04093 | 1323 ft | 222 kts | 32° |
| 2026-05-06 16:20 | 32.92942 | -97.03591 | 1791 ft | 185 kts | 358° |
| 2026-05-06 16:21 | 32.94070 | -97.03732 | 2147 ft | 159 kts | 353° |
| 2026-05-06 16:21 | 32.95315 | -97.03993 | 2364 ft | 209 kts | 354° |
| 2026-05-06 16:21 | 32.96786 | -97.04233 | 3244 ft | 224 kts | 355° |
| 2026-05-06 16:21 | 32.98396 | -97.04431 | 4094 ft | 242 kts | 354° |
| 2026-05-06 16:22 | 33.00175 | -97.04608 | 4659 ft | 273 kts | 352° |
| 2026-05-06 16:22 | 33.02076 | -97.04805 | 4895 ft | 276 kts | 352° |
| 2026-05-06 16:22 | 33.03999 | -97.05012 | 4984 ft | 279 kts | 351° |
| 2026-05-06 16:22 | 33.05919 | -97.05236 | 5013 ft | 277 kts | 351° |
| 2026-05-06 16:23 | 33.07833 | -97.05483 | 5030 ft | 277 kts | 351° |
| 2026-05-06 16:23 | 33.09745 | -97.05741 | 5036 ft | 275 kts | 350° |
| 2026-05-06 16:23 | 33.11640 | -97.06010 | 5175 ft | 266 kts | 349° |
| 2026-05-06 16:23 | 33.13477 | -97.06090 | 6101 ft | 274 kts | 7° |
| 2026-05-06 16:24 | 33.15346 | -97.05391 | 6946 ft | 288 kts | 20° |
| 2026-05-06 16:24 | 33.17189 | -97.04361 | 7772 ft | 294 kts | 25° |
| 2026-05-06 16:24 | 33.18959 | -97.03205 | 8624 ft | 297 kts | 26° |
| 2026-05-06 16:24 | 33.20759 | -97.01920 | 9498 ft | 305 kts | 28° |
| 2026-05-06 16:25 | 33.22576 | -97.00552 | 10358 ft | 312 kts | 28° |
| 2026-05-06 16:25 | 33.24417 | -96.99128 | 11110 ft | 321 kts | 30° |
| 2026-05-06 16:25 | 33.26316 | -96.97635 | 11803 ft | 331 kts | 30° |
| 2026-05-06 16:25 | 33.28262 | -96.96086 | 12538 ft | 340 kts | 31° |
| 2026-05-06 16:26 | 33.30240 | -96.94492 | 13272 ft | 349 kts | 32° |
| 2026-05-06 16:26 | 33.32248 | -96.92863 | 13999 ft | 356 kts | 32° |
| 2026-05-06 16:26 | 33.34338 | -96.91149 | 14686 ft | 362 kts | 32° |
| 2026-05-06 16:26 | 33.36398 | -96.89439 | 15369 ft | 368 kts | 31° |
| 2026-05-06 16:27 | 33.38508 | -96.87682 | 16083 ft | 372 kts | 30° |
| 2026-05-06 16:27 | 33.40640 | -96.85908 | 16793 ft | 376 kts | 29° |
| 2026-05-06 16:27 | 33.42823 | -96.84159 | 17527 ft | 377 kts | 25° |
| 2026-05-06 16:27 | 33.45060 | -96.82532 | 18286 ft | 377 kts | 23° |
| 2026-05-06 16:28 | 33.47337 | -96.80959 | 18967 ft | 377 kts | 21° |
| 2026-05-06 16:28 | 33.49616 | -96.79432 | 19655 ft | 377 kts | 20° |
| 2026-05-06 16:28 | 33.51920 | -96.77905 | 20383 ft | 375 kts | 19° |
| 2026-05-06 16:28 | 33.54192 | -96.76413 | 21098 ft | 373 kts | 19° |
| 2026-05-06 16:29 | 33.56439 | -96.74952 | 21826 ft | 369 kts | 18° |
| 2026-05-06 16:29 | 33.58695 | -96.73491 | 22587 ft | 364 kts | 18° |
| 2026-05-06 16:29 | 33.60897 | -96.72067 | 23359 ft | 357 kts | 17° |
| 2026-05-06 16:29 | 33.63110 | -96.70646 | 23558 ft | 371 kts | 17° |
| 2026-05-06 16:30 | 33.65333 | -96.69231 | 24124 ft | 366 kts | 17° |
| 2026-05-06 16:30 | 33.66882 | -96.68249 | 24183 ft | 371 kts | 17° |
| 2026-05-06 16:30 | 33.69887 | -96.66330 | 24609 ft | 378 kts | 17° |
| 2026-05-06 16:30 | 33.72165 | -96.64868 | 25226 ft | 372 kts | 17° |
| 2026-05-06 16:31 | 33.74483 | -96.63388 | 25504 ft | 373 kts | 17° |
| 2026-05-06 16:31 | 33.76804 | -96.61899 | 25606 ft | 384 kts | 17° |
| 2026-05-06 16:31 | 33.79125 | -96.60404 | 26145 ft | 382 kts | 17° |
| 2026-05-06 16:31 | 33.81447 | -96.58912 | 26515 ft | 379 kts | 17° |
| 2026-05-06 16:32 | 33.83840 | -96.57373 | 26710 ft | 385 kts | 17° |
| 2026-05-06 16:32 | 33.86160 | -96.55870 | 27190 ft | 389 kts | 17° |
| 2026-05-06 16:32 | 33.88551 | -96.54329 | 27570 ft | 387 kts | 17° |
| 2026-05-06 16:32 | 33.90966 | -96.52771 | 27777 ft | 393 kts | 17° |
| 2026-05-06 16:33 | 33.93389 | -96.51206 | 28105 ft | 396 kts | 17° |
| 2026-05-06 16:33 | 33.95791 | -96.49651 | 28485 ft | 398 kts | 17° |
| 2026-05-06 16:33 | 33.98239 | -96.48066 | 28849 ft | 401 kts | 17° |
| 2026-05-06 16:34 | 34.03179 | -96.44853 | 29590 ft | 406 kts | 18° |
| 2026-05-06 16:34 | 34.05647 | -96.43112 | 29950 ft | 413 kts | 21° |
| 2026-05-06 16:34 | 34.08096 | -96.41262 | 30249 ft | 417 kts | 22° |
| 2026-05-06 16:34 | 34.10540 | -96.39354 | 30520 ft | 420 kts | 23° |
| 2026-05-06 16:35 | 34.12952 | -96.37437 | 30785 ft | 423 kts | 23° |
| 2026-05-06 16:35 | 34.15410 | -96.35462 | 31044 ft | 426 kts | 24° |
| 2026-05-06 16:35 | 34.17881 | -96.33465 | 31301 ft | 429 kts | 24° |
| 2026-05-06 16:35 | 34.20360 | -96.31451 | 31544 ft | 431 kts | 24° |
| 2026-05-06 16:36 | 34.22857 | -96.29417 | 31793 ft | 434 kts | 24° |
| 2026-05-06 16:36 | 34.25378 | -96.27363 | 31931 ft | 440 kts | 24° |
| 2026-05-06 16:36 | 34.27951 | -96.25270 | 31995 ft | 450 kts | 24° |
| 2026-05-06 16:37 | 34.33234 | -96.20977 | 32074 ft | 472 kts | 24° |
| 2026-05-06 16:37 | 34.35989 | -96.18732 | 32048 ft | 484 kts | 25° |
| 2026-05-06 16:37 | 34.38816 | -96.16427 | 32047 ft | 496 kts | 25° |
| 2026-05-06 16:37 | 34.41711 | -96.14062 | 32042 ft | 507 kts | 25° |
| 2026-05-06 16:38 | 34.44657 | -96.11652 | 32043 ft | 518 kts | 25° |
| 2026-05-06 16:38 | 34.50715 | -96.06679 | 32034 ft | 538 kts | 26° |
| 2026-05-06 16:39 | 34.57021 | -96.01482 | 32053 ft | 557 kts | 26° |
| 2026-05-06 16:39 | 34.60190 | -95.98850 | 32091 ft | 542 kts | 26° |
| 2026-05-06 16:39 | 34.63238 | -95.96289 | 32077 ft | 530 kts | 26° |
| 2026-05-06 16:40 | 34.69344 | -95.91195 | 32077 ft | 535 kts | 26° |
| 2026-05-06 16:40 | 34.75521 | -95.86071 | 32091 ft | 538 kts | 26° |
| 2026-05-06 16:41 | 34.81625 | -95.80995 | 32102 ft | 536 kts | 26° |
| 2026-05-06 16:41 | 34.87447 | -95.75153 | 32124 ft | 547 kts | 35° |
| 2026-05-06 16:42 | 34.93101 | -95.68793 | 32093 ft | 562 kts | 37° |
| 2026-05-06 16:42 | 34.98887 | -95.62133 | 32045 ft | 580 kts | 37° |
| 2026-05-06 16:43 | 35.04800 | -95.55267 | 32055 ft | 596 kts | 38° |
| 2026-05-06 16:43 | 35.10703 | -95.48350 | 32053 ft | 565 kts | 38° |
| 2026-05-06 16:43 | 35.13439 | -95.45110 | 31879 ft | 550 kts | 37° |
| 2026-05-06 16:44 | 35.16191 | -95.41857 | 31515 ft | 550 kts | 37° |
| 2026-05-06 16:44 | 35.18962 | -95.38597 | 31162 ft | 552 kts | 37° |
| 2026-05-06 16:44 | 35.21738 | -95.35338 | 30815 ft | 553 kts | 37° |
| 2026-05-06 16:44 | 35.24507 | -95.32087 | 30496 ft | 551 kts | 37° |
| 2026-05-06 16:45 | 35.27239 | -95.28879 | 30272 ft | 549 kts | 38° |
| 2026-05-06 16:45 | 35.29992 | -95.25645 | 30025 ft | 551 kts | 38° |
| 2026-05-06 16:45 | 35.32769 | -95.22379 | 29753 ft | 552 kts | 38° |
| 2026-05-06 16:45 | 35.35542 | -95.19114 | 29479 ft | 552 kts | 38° |
| 2026-05-06 16:46 | 35.38297 | -95.15863 | 29211 ft | 550 kts | 38° |
| 2026-05-06 16:46 | 35.41034 | -95.12622 | 28995 ft | 548 kts | 38° |
| 2026-05-06 16:46 | 35.43782 | -95.09359 | 28721 ft | 547 kts | 38° |
| 2026-05-06 16:46 | 35.46481 | -95.06159 | 28455 ft | 547 kts | 38° |
| 2026-05-06 16:47 | 35.49212 | -95.02922 | 28212 ft | 548 kts | 38° |
| 2026-05-06 16:47 | 35.51971 | -94.99652 | 27956 ft | 548 kts | 38° |
| 2026-05-06 16:47 | 35.54718 | -94.96394 | 27696 ft | 548 kts | 38° |
| 2026-05-06 16:47 | 35.57429 | -94.93178 | 27426 ft | 547 kts | 38° |
| 2026-05-06 16:48 | 35.60167 | -94.89928 | 27166 ft | 546 kts | 38° |
| 2026-05-06 16:48 | 35.62894 | -94.86684 | 26923 ft | 546 kts | 39° |
| 2026-05-06 16:48 | 35.65618 | -94.83440 | 26666 ft | 546 kts | 39° |
| 2026-05-06 16:48 | 35.68352 | -94.80170 | 26462 ft | 546 kts | 38° |
| 2026-05-06 16:49 | 35.71037 | -94.76957 | 26216 ft | 549 kts | 39° |
| 2026-05-06 16:49 | 35.73784 | -94.73670 | 25966 ft | 547 kts | 39° |
| 2026-05-06 16:49 | 35.76492 | -94.70427 | 25716 ft | 542 kts | 39° |
| 2026-05-06 16:49 | 35.79181 | -94.67201 | 25475 ft | 539 kts | 39° |
| 2026-05-06 16:50 | 35.81860 | -94.63987 | 25248 ft | 538 kts | 39° |
| 2026-05-06 16:50 | 35.84551 | -94.60755 | 24928 ft | 538 kts | 39° |
| 2026-05-06 16:50 | 35.87201 | -94.57573 | 24256 ft | 534 kts | 39° |
| 2026-05-06 16:50 | 35.89834 | -94.54407 | 23555 ft | 523 kts | 40° |
| 2026-05-06 16:51 | 35.92405 | -94.51307 | 22772 ft | 512 kts | 40° |
| 2026-05-06 16:51 | 35.94927 | -94.48253 | 22028 ft | 506 kts | 40° |
| 2026-05-06 16:51 | 35.97418 | -94.45234 | 21298 ft | 500 kts | 39° |
| 2026-05-06 16:51 | 35.99906 | -94.42233 | 20560 ft | 493 kts | 37° |
| 2026-05-06 16:52 | 36.02620 | -94.39811 | 19785 ft | 474 kts | 20° |
| 2026-05-06 16:52 | 36.05614 | -94.38400 | 19028 ft | 447 kts | 4° |
| 2026-05-06 16:52 | 36.08613 | -94.37656 | 18328 ft | 432 kts | 359° |
| 2026-05-06 16:52 | 36.11493 | -94.37071 | 17567 ft | 420 kts | 358° |
| 2026-05-06 16:53 | 36.14346 | -94.36555 | 16805 ft | 408 kts | 358° |
| 2026-05-06 16:53 | 36.17121 | -94.36103 | 16079 ft | 398 kts | 358° |
| 2026-05-06 16:53 | 36.19836 | -94.35684 | 15365 ft | 389 kts | 357° |
| 2026-05-06 16:53 | 36.22495 | -94.35298 | 14637 ft | 377 kts | 358° |
| 2026-05-06 16:54 | 36.25038 | -94.34954 | 13975 ft | 359 kts | 358° |
| 2026-05-06 16:54 | 36.27498 | -94.34656 | 13194 ft | 353 kts | 357° |
| 2026-05-06 16:54 | 36.29892 | -94.34396 | 12433 ft | 347 kts | 357° |
| 2026-05-06 16:54 | 36.32313 | -94.34160 | 11673 ft | 342 kts | 357° |
| 2026-05-06 16:55 | 36.34642 | -94.33960 | 10966 ft | 338 kts | 357° |
| 2026-05-06 16:55 | 36.36975 | -94.33786 | 10254 ft | 334 kts | 357° |
| 2026-05-06 16:55 | 36.39293 | -94.33641 | 9528 ft | 331 kts | 357° |
| 2026-05-06 16:55 | 36.41577 | -94.33528 | 8740 ft | 324 kts | 358° |
| 2026-05-06 16:56 | 36.43733 | -94.32996 | 7996 ft | 316 kts | 15° |
| 2026-05-06 16:56 | 36.45773 | -94.32039 | 7194 ft | 304 kts | 19° |
| 2026-05-06 16:56 | 36.47675 | -94.31063 | 6465 ft | 288 kts | 20° |
| 2026-05-06 16:56 | 36.49459 | -94.30137 | 5699 ft | 274 kts | 21° |
| 2026-05-06 16:57 | 36.51173 | -94.29319 | 5004 ft | 250 kts | 21° |
| 2026-05-06 16:57 | 36.52738 | -94.28630 | 4429 ft | 227 kts | 21° |
| 2026-05-06 16:57 | 36.54202 | -94.28002 | 4070 ft | 219 kts | 21° |
| 2026-05-06 16:57 | 36.55618 | -94.27394 | 3903 ft | 215 kts | 20° |
| 2026-05-06 16:58 | 36.57046 | -94.26777 | 3805 ft | 216 kts | 21° |
| 2026-05-06 16:58 | 36.58460 | -94.26197 | 3756 ft | 216 kts | 16° |
| 2026-05-06 16:58 | 36.59972 | -94.26309 | 3577 ft | 221 kts | 344° |
| 2026-05-06 16:58 | 36.61345 | -94.27144 | 3548 ft | 227 kts | 332° |
| 2026-05-06 16:59 | 36.62385 | -94.28658 | 3507 ft | 237 kts | 299° |
| 2026-05-06 16:59 | 36.62609 | -94.30630 | 3520 ft | 222 kts | 265° |
| 2026-05-06 16:59 | 36.62191 | -94.32463 | 3578 ft | 222 kts | 253° |
| 2026-05-06 16:59 | 36.61583 | -94.34236 | 3618 ft | 224 kts | 237° |
| 2026-05-06 17:00 | 36.60384 | -94.35426 | 3629 ft | 222 kts | 200° |
| 2026-05-06 17:00 | 36.58902 | -94.35600 | 3647 ft | 217 kts | 169° |
| 2026-05-06 17:00 | 36.57480 | -94.35443 | 3724 ft | 193 kts | 174° |
| 2026-05-06 17:00 | 36.56091 | -94.35410 | 3819 ft | 200 kts | 176° |
| 2026-05-06 17:01 | 36.54741 | -94.35675 | 3882 ft | 202 kts | 201° |
| 2026-05-06 17:01 | 36.53512 | -94.36461 | 3881 ft | 207 kts | 207° |
| 2026-05-06 17:01 | 36.52298 | -94.37328 | 3836 ft | 195 kts | 208° |
| 2026-05-06 17:01 | 36.51123 | -94.38061 | 3830 ft | 191 kts | 191° |
| 2026-05-06 17:02 | 36.49833 | -94.37988 | 3811 ft | 181 kts | 165° |
| 2026-05-06 17:02 | 36.48560 | -94.37926 | 3797 ft | 192 kts | 189° |
| 2026-05-06 17:02 | 36.47276 | -94.38204 | 3796 ft | 185 kts | 171° |
| 2026-05-06 17:02 | 36.46022 | -94.37891 | 3810 ft | 185 kts | 162° |
| 2026-05-06 17:03 | 36.44787 | -94.37525 | 3907 ft | 182 kts | 163° |
| 2026-05-06 17:03 | 36.43523 | -94.37203 | 3940 ft | 189 kts | 164° |
| 2026-05-06 17:03 | 36.42246 | -94.36903 | 3869 ft | 185 kts | 164° |
| 2026-05-06 17:03 | 36.41051 | -94.36548 | 3729 ft | 171 kts | 158° |
| 2026-05-06 17:04 | 36.39918 | -94.36097 | 3619 ft | 172 kts | 156° |
| 2026-05-06 17:04 | 36.38793 | -94.35591 | 3481 ft | 170 kts | 153° |
| 2026-05-06 17:04 | 36.37755 | -94.35102 | 3276 ft | 157 kts | 153° |
| 2026-05-06 17:04 | 36.36752 | -94.34619 | 3036 ft | 150 kts | 152° |
| 2026-05-06 17:05 | 36.35781 | -94.34127 | 2801 ft | 147 kts | 152° |
| 2026-05-06 17:05 | 36.34839 | -94.33675 | 2711 ft | 149 kts | 156° |
| 2026-05-06 17:05 | 36.33854 | -94.33277 | 2581 ft | 148 kts | 156° |
| 2026-05-06 17:05 | 36.32894 | -94.32837 | 2401 ft | 148 kts | 154° |
| 2026-05-06 17:06 | 36.31917 | -94.32390 | 2140 ft | 148 kts | 154° |
| 2026-05-06 17:06 | 36.30955 | -94.31960 | 1834 ft | 143 kts | 153° |
| 2026-05-06 17:06 | 36.30054 | -94.31525 | 1565 ft | 141 kts | 155° |
| 2026-05-06 17:06 | 36.29129 | -94.31123 | 1289 ft | 136 kts | 154° |
| 2026-05-06 17:07 | 36.28368 | -94.30755 | 1279 ft | 76 kts | 159° |
| 2026-05-06 17:07 | 36.27872 | -94.30529 | 1278 ft | 58 kts | 162° |
| 2026-05-06 17:07 | 36.27728 | -94.30472 | 1280 ft | 16 kts | 160° |
| 2026-05-06 17:07 | 36.27590 | -94.30400 | 1283 ft | 21 kts | 150° |
| 2026-05-06 17:08 | 36.27553 | -94.30279 | 1281 ft | 13 kts | 78° |
| 2026-05-06 17:08 | 36.27575 | -94.30190 | 1281 ft | 8 kts | 71° |
| 2026-05-06 17:08 | 36.27611 | -94.30070 | 1282 ft | 18 kts | 69° |
| 2026-05-06 17:08 | 36.27648 | -94.29947 | 1279 ft | 13 kts | 70° |
| 2026-05-06 17:09 | 36.27671 | -94.29870 | 1282 ft | 6 kts | 70° |
| 2026-05-06 17:09 | 36.27690 | -94.29806 | 1279 ft | 8 kts | 74° |
| 2026-05-06 17:09 | 36.27690 | -94.29762 | 1279 ft | 3 kts | 92° |
| 2026-05-06 17:09 | 36.27689 | -94.29748 | 1279 ft | 8 kts | 94° |
| 2026-05-06 17:10 | 36.27688 | -94.29691 | 1279 ft | 4 kts | 91° |
| 2026-05-06 17:10 | 36.27688 | -94.29686 | 1279 ft | 0 kts | 91° |